createdAt,value
2023-05-23T00:02:19.719Z,99992.13
2023-05-23T00:04:47.671Z,99986.84
2023-05-23T00:07:16.357Z,99979.72
2023-05-23T00:09:43.897Z,99987.03
2023-05-23T00:12:12.342Z,99993.59
2023-05-23T00:14:40.199Z,99983.47
2023-05-23T00:17:08.164Z,99978.84
2023-05-23T00:19:36.897Z,99979.72
2023-05-23T00:22:04.558Z,99978.00
2023-05-23T00:24:32.094Z,99986.22
2023-05-23T00:26:59.689Z,99989.38
2023-05-23T00:29:27.520Z,99977.41
2023-05-23T00:31:58.165Z,99974.69
2023-05-23T00:34:25.711Z,99976.34
2023-05-23T00:36:54.217Z,99977.59
2023-05-23T00:39:21.910Z,99980.16
2023-05-23T00:41:51.799Z,99978.44
2023-05-23T00:44:21.506Z,99981.81
2023-05-23T00:46:49.593Z,99987.47
2023-05-23T00:49:20.048Z,99977.59
2023-05-23T00:51:49.466Z,99984.13
2023-05-23T00:54:17.148Z,99988.97
2023-05-23T00:56:44.854Z,99984.13
2023-05-23T00:59:12.609Z,99981.41
2023-05-23T01:01:40.299Z,99986.25
2023-05-23T01:04:08.322Z,99980.78
2023-05-23T01:06:36.874Z,99983.28
2023-05-23T01:09:04.995Z,99984.13
2023-05-23T01:11:32.711Z,99976.34
2023-05-23T01:14:00.256Z,99951.97
2023-05-23T01:16:27.979Z,99953.44
2023-05-23T01:18:57.905Z,99950.47
2023-05-23T01:21:25.636Z,99952.59
2023-05-23T01:23:55.640Z,99956.16
2023-05-23T01:26:26.230Z,99962.66
2023-05-23T01:28:54.105Z,99970.25
2023-05-23T01:31:21.831Z,99971.28
2023-05-23T01:33:50.077Z,99974.03
2023-05-23T01:36:17.660Z,99982.22
2023-05-23T01:38:45.281Z,99979.91
2023-05-23T01:41:12.882Z,99976.13
2023-05-23T01:43:40.506Z,99977.19
2023-05-23T01:46:08.135Z,99980.34
2023-05-23T01:48:35.746Z,99994.84
2023-05-23T01:51:03.380Z,99995.28
2023-05-23T01:53:31.323Z,99992.75
2023-05-23T01:55:59.305Z,99996.13
2023-05-23T01:58:26.845Z,99995.28
2023-05-23T02:00:54.390Z,99991.91
2023-05-23T02:03:22.226Z,99988.09
2023-05-23T02:05:49.874Z,99992.75
2023-05-23T02:08:17.413Z,99988.09
2023-05-23T02:10:45.005Z,99993.56
2023-05-23T02:13:12.542Z,99991.06
2023-05-23T02:15:40.392Z,99984.75
2023-05-23T02:18:08.178Z,99984.75
2023-05-23T02:20:36.127Z,99986.44
2023-05-23T02:23:03.693Z,99984.75
2023-05-23T02:25:31.389Z,99982.63
2023-05-23T02:27:58.960Z,99978.44
2023-05-23T02:30:26.492Z,99980.34
2023-05-23T02:32:54.367Z,99984.31
2023-05-23T02:35:21.983Z,99984.31
2023-05-23T02:37:49.583Z,99991.50
2023-05-23T02:40:17.266Z,99988.31
2023-05-23T02:42:44.922Z,99993.59
2023-05-23T02:45:12.810Z,99992.53
2023-05-23T02:47:40.364Z,99988.75
2023-05-23T02:50:07.995Z,99995.50
2023-05-23T02:52:35.562Z,99989.78
2023-05-23T02:55:03.108Z,100000.53
2023-05-23T02:57:30.751Z,99998.63
2023-05-23T02:59:58.318Z,99998.63
2023-05-23T03:02:26.088Z,99995.06
2023-05-23T03:04:53.863Z,99995.69
2023-05-23T03:07:28.257Z,99987.69
2023-05-23T03:09:56.471Z,99998.63
2023-05-23T03:12:24.249Z,99997.56
2023-05-23T03:14:51.912Z,99994.84
2023-05-23T03:17:19.573Z,99996.09
2023-05-23T03:19:47.259Z,99999.06
2023-05-23T03:22:14.972Z,100004.28
2023-05-23T03:24:43.171Z,100002.44
2023-05-23T03:27:10.927Z,100000.72
2023-05-23T03:29:38.757Z,99999.69
2023-05-23T03:32:06.641Z,99997.34
2023-05-23T03:34:34.377Z,99998.41
2023-05-23T03:37:02.031Z,99999.06
2023-05-23T03:39:29.922Z,100012.50
2023-05-23T03:41:57.652Z,100013.97
2023-05-23T03:44:25.813Z,100030.16
2023-05-23T03:46:53.588Z,100019.22
2023-05-23T03:49:21.484Z,100026.38
2023-05-23T03:51:49.138Z,100025.31
2023-05-23T03:54:17.721Z,100023.44
2023-05-23T03:56:45.414Z,100019.22
2023-05-23T03:59:13.089Z,100020.91
2023-05-23T04:01:41.235Z,100026.38
2023-05-23T04:04:08.999Z,100027.03
2023-05-23T04:06:36.926Z,100029.75
2023-05-23T04:09:06.599Z,100033.09
2023-05-23T04:11:34.301Z,100036.06
2023-05-23T04:14:02.862Z,100043.19
2023-05-23T04:16:33.267Z,100041.09
2023-05-23T04:19:04.792Z,100033.53
2023-05-23T04:21:33.229Z,100040.28
2023-05-23T04:24:00.988Z,100046.38
2023-05-23T04:26:28.891Z,100050.78
2023-05-23T04:28:56.433Z,100047.22
2023-05-23T04:31:24.073Z,100055.81
2023-05-23T04:33:51.858Z,100059.19
2023-05-23T04:36:19.437Z,100053.31
2023-05-23T04:38:47.073Z,100053.31
2023-05-23T04:41:16.465Z,100062.13
2023-05-23T04:43:44.410Z,100058.38
2023-05-23T04:46:13.850Z,100059.19
2023-05-23T04:48:42.782Z,100068.25
2023-05-23T04:51:11.476Z,100067.41
2023-05-23T04:53:41.039Z,100058.13
2023-05-23T04:56:09.850Z,100067.19
2023-05-23T04:58:37.464Z,100071.19
2023-05-23T05:01:06.555Z,100081.09
2023-05-23T05:03:34.178Z,100081.69
2023-05-23T05:06:01.898Z,100087.81
2023-05-23T05:08:29.522Z,100073.09
2023-05-23T05:10:57.076Z,100076.69
2023-05-23T05:13:24.994Z,100073.94
2023-05-23T05:15:53.058Z,100072.03
2023-05-23T05:18:20.601Z,100079.19
2023-05-23T05:20:48.219Z,100074.16
2023-05-23T05:23:16.134Z,100088.66
2023-05-23T05:25:43.772Z,100079.41
2023-05-23T05:28:11.337Z,100084.88
2023-05-23T05:30:39.285Z,100091.66
2023-05-23T05:33:07.806Z,100090.59
2023-05-23T05:35:35.515Z,100089.09
2023-05-23T05:38:04.809Z,100090.16
2023-05-23T05:40:32.667Z,100097.53
2023-05-23T05:43:00.238Z,100090.34
2023-05-23T05:45:27.814Z,100093.31
2023-05-23T05:47:55.426Z,100092.44
2023-05-23T05:50:22.999Z,100104.44
2023-05-23T05:52:52.615Z,100100.44
2023-05-23T05:55:20.370Z,100101.28
2023-05-23T05:57:47.943Z,100098.38
2023-05-23T06:00:15.782Z,100110.16
2023-05-23T06:02:43.535Z,100114.78
2023-05-23T06:05:12.370Z,100109.47
2023-05-23T06:07:39.975Z,100118.56
2023-05-23T06:10:07.582Z,100116.00
2023-05-23T06:12:35.174Z,100114.78
2023-05-23T06:15:02.732Z,100114.13
2023-05-23T06:17:30.546Z,100112.22
2023-05-23T06:19:58.352Z,100114.13
2023-05-23T06:22:26.137Z,100117.03
2023-05-23T06:24:53.675Z,100113.91
2023-05-23T06:27:21.283Z,100110.09
2023-05-23T06:29:48.862Z,100122.09
2023-05-23T06:32:16.627Z,100115.16
2023-05-23T06:34:44.240Z,100119.38
2023-05-23T06:37:11.801Z,100121.88
2023-05-23T06:39:39.394Z,100124.63
2023-05-23T06:42:06.959Z,100126.72
2023-05-23T06:44:34.550Z,100135.97
2023-05-23T06:47:02.125Z,100133.25
2023-05-23T06:49:29.701Z,100137.88
2023-05-23T06:51:57.279Z,100148.81
2023-05-23T06:54:24.841Z,100142.06
2023-05-23T06:56:52.433Z,100143.13
2023-05-23T06:59:20.002Z,100151.72
2023-05-23T07:01:47.632Z,100156.31
2023-05-23T07:04:15.313Z,100149.00
2023-05-23T07:06:42.923Z,100155.72
2023-05-23T07:09:11.931Z,100155.06
2023-05-23T07:11:41.169Z,100156.75
2023-05-23T07:14:08.851Z,100160.13
2023-05-23T07:16:36.606Z,100154.84
2023-05-23T07:19:05.423Z,100153.81
2023-05-23T07:21:33.353Z,100155.06
2023-05-23T07:24:00.936Z,100154.47
2023-05-23T07:26:28.538Z,100155.50
2023-05-23T07:28:56.254Z,100158.44
2023-05-23T07:31:23.951Z,100156.75
2023-05-23T07:33:55.838Z,100156.31
2023-05-23T07:36:23.725Z,100159.28
2023-05-23T07:38:51.382Z,100161.81
2023-05-23T07:41:18.965Z,100163.50
2023-05-23T07:43:46.574Z,100158.88
2023-05-23T07:46:14.170Z,100159.72
2023-05-23T07:48:41.778Z,100162.66
2023-05-23T07:51:09.540Z,100165.59
2023-05-23T07:53:39.880Z,100165.41
2023-05-23T07:56:07.705Z,100171.25
2023-05-23T07:58:35.295Z,100177.59
2023-05-23T08:01:03.629Z,100174.00
2023-05-23T08:03:31.457Z,100176.53
2023-05-23T08:05:59.061Z,100175.69
2023-05-23T08:08:26.665Z,100182.19
2023-05-23T08:10:54.239Z,100179.44
2023-05-23T08:13:21.872Z,100177.59
2023-05-23T08:15:49.478Z,100181.16
2023-05-23T08:18:18.182Z,100182.84
2023-05-23T08:20:46.064Z,100186.22
2023-05-23T08:23:14.010Z,100187.03
2023-05-23T08:25:41.580Z,100193.34
2023-05-23T08:28:09.200Z,100196.31
2023-05-23T08:30:36.794Z,100192.94
2023-05-23T08:33:05.177Z,100195.03
2023-05-23T08:35:35.221Z,100198.41
2023-05-23T08:38:02.808Z,100198.41
2023-05-23T08:40:30.461Z,100187.47
2023-05-23T08:42:58.131Z,100186.41
2023-05-23T08:45:25.936Z,100191.47
2023-05-23T08:47:53.550Z,100190.41
2023-05-23T08:50:23.058Z,100196.31
2023-05-23T08:52:51.089Z,100202.66
2023-05-23T08:55:18.749Z,100195.28
2023-05-23T08:57:46.379Z,100199.50
2023-05-23T09:00:14.974Z,100204.31
2023-05-23T09:02:42.707Z,100198.44
2023-05-23T09:07:52.262Z,100205.59
2023-05-23T09:10:21.847Z,100208.75
2023-05-23T09:12:49.436Z,100211.91
2023-05-23T09:15:17.087Z,100205.19
2023-05-23T09:17:44.799Z,100209.41
2023-05-23T09:20:12.535Z,100216.56
2023-05-23T09:22:40.243Z,100224.94
2023-05-23T09:25:07.843Z,100218.88
2023-05-23T09:27:35.404Z,100220.13
2023-05-23T09:30:03.687Z,100221.16
2023-05-23T09:32:31.338Z,100222.00
2023-05-23T09:34:59.031Z,100219.28
2023-05-23T09:37:27.080Z,100225.78
2023-05-23T09:39:54.688Z,100216.09
2023-05-23T09:42:22.881Z,100218.81
2023-05-23T09:44:50.536Z,100226.38
2023-05-23T09:47:18.318Z,100219.06
2023-05-23T09:49:46.128Z,100219.25
2023-05-23T09:52:13.699Z,100217.75
2023-05-23T09:54:41.304Z,100224.28
2023-05-23T09:57:09.732Z,100227.03
2023-05-23T09:59:37.308Z,100225.97
2023-05-23T10:02:04.880Z,100220.69
2023-05-23T10:04:32.532Z,100228.28
2023-05-23T10:07:00.141Z,100222.16
2023-05-23T10:09:27.744Z,100226.16
2023-05-23T10:11:55.326Z,100230.56
2023-05-23T10:14:22.959Z,100233.28
2023-05-23T10:16:50.838Z,100231.63
2023-05-23T10:19:18.525Z,100230.78
2023-05-23T10:21:46.833Z,100228.88
2023-05-23T10:24:14.538Z,100224.44
2023-05-23T10:26:42.190Z,100226.16
2023-05-23T10:29:09.749Z,100231.63
2023-05-23T10:31:37.485Z,100227.81
2023-05-23T10:34:05.156Z,100227.81
2023-05-23T10:36:32.857Z,100225.50
2023-05-23T10:39:00.627Z,100225.69
2023-05-23T10:41:29.289Z,100221.09
2023-05-23T10:43:56.880Z,100228.88
2023-05-23T10:46:24.640Z,100229.28
2023-05-23T10:48:52.312Z,100237.91
2023-05-23T10:51:20.480Z,100240.00
2023-05-23T10:53:48.101Z,100232.88
2023-05-23T10:56:15.683Z,100229.28
2023-05-23T10:58:43.252Z,100234.34
2023-05-23T11:01:10.820Z,100242.56
2023-05-23T11:03:38.564Z,100249.69
2023-05-23T11:06:06.319Z,100243.81
2023-05-23T11:08:46.251Z,100251.63
2023-05-23T11:11:15.074Z,100252.06
2023-05-23T11:13:42.775Z,100255.03
2023-05-23T11:16:10.407Z,100253.13
2023-05-23T11:18:39.005Z,100260.91
2023-05-23T11:21:06.588Z,100263.66
2023-05-23T11:23:34.195Z,100264.94
2023-05-23T11:26:01.804Z,100257.97
2023-05-23T11:28:29.385Z,100268.91
2023-05-23T11:30:57.088Z,100264.72
2023-05-23T11:33:24.692Z,100281.09
2023-05-23T11:35:52.893Z,100285.94
2023-05-23T11:38:20.866Z,100280.47
2023-05-23T11:40:48.447Z,100279.63
2023-05-23T11:43:16.629Z,100282.56
2023-05-23T11:45:46.893Z,100282.78
2023-05-23T11:48:14.847Z,100281.94
2023-05-23T11:50:42.590Z,100281.94
2023-05-23T11:53:10.333Z,100284.66
2023-05-23T11:55:37.915Z,100280.88
2023-05-23T11:58:05.484Z,100288.25
2023-05-23T12:00:33.077Z,100288.25
2023-05-23T12:03:00.753Z,100304.84
2023-05-23T12:05:28.427Z,100296.00
2023-05-23T12:07:56.035Z,100294.31
2023-05-23T12:10:23.668Z,100295.38
2023-05-23T12:12:51.296Z,100298.09
2023-05-23T12:15:18.903Z,100301.88
2023-05-23T12:17:46.965Z,100295.56
2023-05-23T12:20:14.814Z,100303.94
2023-05-23T12:22:42.520Z,100310.06
2023-05-23T12:25:10.241Z,100297.66
2023-05-23T12:30:46.469Z,100306.69
2023-05-23T12:33:46.976Z,100301.63
2023-05-23T12:36:19.830Z,100309.84
2023-05-23T12:38:47.573Z,100311.06
2023-05-23T12:41:15.473Z,100311.91
2023-05-23T12:43:43.123Z,100313.63
2023-05-23T12:46:10.841Z,100315.28
2023-05-23T12:48:38.522Z,100312.38
2023-05-23T12:51:06.171Z,100319.31
2023-05-23T12:53:33.916Z,100314.69
2023-05-23T12:56:01.676Z,100324.56
2023-05-23T12:58:31.429Z,100320.16
2023-05-23T13:00:59.215Z,100324.16
2023-05-23T13:03:27.055Z,100328.78
2023-05-23T13:05:54.796Z,100327.94
2023-05-23T13:08:22.530Z,100333.78
2023-05-23T13:10:50.373Z,100332.09
2023-05-23T13:13:18.120Z,100326.63
2023-05-23T13:15:46.823Z,100330.44
2023-05-23T13:18:15.921Z,100334.19
2023-05-23T13:20:43.539Z,100334.19
2023-05-23T13:23:11.108Z,100337.56
2023-05-23T13:25:38.807Z,100335.69
2023-05-23T13:28:06.581Z,100343.44
2023-05-23T13:30:34.155Z,100342.81
2023-05-23T13:33:01.805Z,100348.91
2023-05-23T13:35:29.422Z,100355.41
2023-05-23T13:37:56.989Z,100346.59
2023-05-23T13:40:25.696Z,100354.97
2023-05-23T13:42:53.349Z,100363.19
2023-05-23T13:45:22.685Z,100363.19
2023-05-23T13:47:50.387Z,100367.38
2023-05-23T13:50:20.847Z,100362.28
2023-05-23T13:52:49.427Z,100377.84
2023-05-23T13:55:17.398Z,100370.69
2023-05-23T13:57:45.902Z,100379.72
2023-05-23T14:00:13.782Z,100378.06
2023-05-23T14:02:41.386Z,100380.97
2023-05-23T14:05:09.174Z,100378.66
2023-05-23T14:07:36.794Z,100387.25
2023-05-23T14:10:05.205Z,100394.38
2023-05-23T14:12:32.988Z,100393.34
2023-05-23T14:15:00.797Z,100392.72
2023-05-23T14:17:28.446Z,100392.06
2023-05-23T14:19:56.068Z,100399.19
2023-05-23T14:22:23.642Z,100400.25
2023-05-23T14:24:51.231Z,100405.50
2023-05-23T14:27:19.053Z,100405.50
2023-05-23T14:29:46.907Z,100408.44
2023-05-23T14:32:14.742Z,100404.66
2023-05-23T14:34:42.460Z,100401.53
2023-05-23T14:37:10.050Z,100411.84
2023-05-23T14:39:37.876Z,100412.03
2023-05-23T14:42:08.159Z,100420.63
2023-05-23T14:44:58.982Z,100423.13
2023-05-23T14:47:26.585Z,100418.72
2023-05-23T14:49:54.262Z,100423.53
2023-05-23T14:52:21.873Z,100431.06
2023-05-23T14:54:49.539Z,100436.53
2023-05-23T14:57:17.145Z,100434.44
2023-05-23T14:59:44.821Z,100441.13
2023-05-23T15:02:12.464Z,100447.59
2023-05-23T15:04:43.071Z,100447.25
2023-05-23T15:07:10.681Z,100451.66
2023-05-23T15:09:38.293Z,100451.84
2023-05-23T15:12:07.680Z,100450.34
2023-05-23T15:14:35.338Z,100453.94
2023-05-23T15:17:07.939Z,100461.28
2023-05-23T15:19:36.115Z,100457.91
2023-05-23T15:22:04.015Z,100466.47
2023-05-23T15:24:31.627Z,100470.41
2023-05-23T15:27:11.835Z,100466.19
2023-05-23T15:29:46.932Z,100473.00
2023-05-23T15:32:14.696Z,100480.50
2023-05-23T15:34:42.323Z,100484.28
2023-05-23T15:37:10.067Z,100495.19
2023-05-23T15:39:37.746Z,100483.63
2023-05-23T15:42:05.416Z,100484.84
2023-05-23T15:44:33.134Z,100487.59
2023-05-23T15:47:01.942Z,100496.63
2023-05-23T15:49:29.593Z,100503.53
2023-05-23T15:54:32.672Z,100506.25
2023-05-23T15:57:00.456Z,100499.75
2023-05-23T15:59:28.024Z,100511.06
2023-05-23T16:01:55.703Z,100505.16
2023-05-23T16:04:23.488Z,100504.66
2023-05-23T16:06:51.136Z,100504.66
2023-05-23T16:11:46.691Z,100503.81
2023-05-23T16:14:14.700Z,100511.75
2023-05-23T16:16:42.420Z,100502.06
2023-05-23T16:19:10.152Z,100519.50
2023-05-23T16:21:37.856Z,100517.59
2023-05-23T16:24:05.766Z,100514.19
2023-05-23T16:26:35.041Z,100521.56
2023-05-23T16:29:02.709Z,100510.63
2023-05-23T16:31:30.575Z,100511.97
2023-05-23T16:33:58.766Z,100511.97
2023-05-23T16:36:26.959Z,100519.13
2023-05-23T16:38:55.715Z,100512.16
2023-05-23T16:41:23.524Z,100523.28
2023-05-23T16:43:51.146Z,100519.31
2023-05-23T16:46:20.646Z,100525.63
2023-05-23T16:48:48.401Z,100521.00
2023-05-23T16:51:16.181Z,100525.81
2023-05-23T16:53:43.795Z,100524.50
2023-05-23T16:56:11.487Z,100524.50
2023-05-23T16:58:39.294Z,100521.13
2023-05-23T17:01:06.929Z,100521.56
2023-05-23T17:03:34.595Z,100520.72
2023-05-23T17:06:02.470Z,100519.22
2023-05-23T17:08:30.267Z,100526.56
2023-05-23T17:10:57.883Z,100528.25
2023-05-23T17:13:26.019Z,100536.44
2023-05-23T17:15:53.655Z,100530.81
2023-05-23T17:18:21.858Z,100533.53
2023-05-23T17:20:49.461Z,100536.72
2023-05-23T17:23:19.046Z,100537.94
2023-05-23T17:25:46.906Z,100543.63
2023-05-23T17:28:14.520Z,100545.97
2023-05-23T17:30:42.121Z,100552.44
2023-05-23T17:33:10.803Z,100559.78
2023-05-23T17:35:38.537Z,100562.50
2023-05-23T17:38:06.175Z,100558.09
2023-05-23T17:40:34.460Z,100566.47
2023-05-23T17:43:02.066Z,100569.88
2023-05-23T17:45:29.662Z,100572.41
2023-05-23T17:47:58.822Z,100579.72
2023-05-23T17:50:26.549Z,100576.16
2023-05-23T17:52:54.118Z,100570.91
2023-05-23T17:55:21.868Z,100580.13
2023-05-23T17:57:49.448Z,100566.47
2023-05-23T18:00:17.591Z,100578.22
2023-05-23T18:02:45.260Z,100569.41
2023-05-23T18:05:13.114Z,100562.06
2023-05-23T18:07:40.714Z,100576.56
2023-05-23T18:10:08.405Z,100584.91
2023-05-23T18:12:36.290Z,100579.66
2023-05-23T18:15:03.888Z,100576.09
2023-05-23T18:17:31.749Z,100579.84
2023-05-23T18:19:59.414Z,100578.16
2023-05-23T18:22:26.992Z,100579.66
2023-05-23T18:24:54.654Z,100579.84
2023-05-23T18:27:22.591Z,100581.56
2023-05-23T18:29:50.235Z,100586.63
2023-05-23T18:32:17.901Z,100591.88
2023-05-23T18:34:45.481Z,100586.25
2023-05-23T18:37:13.245Z,100603.47
2023-05-23T18:39:41.103Z,100595.28
2023-05-23T18:42:08.721Z,100601.41
2023-05-23T18:44:36.371Z,100612.31
2023-05-23T18:47:03.984Z,100608.91
2023-05-23T18:49:32.056Z,100618.44
2023-05-23T18:51:59.856Z,100620.34
2023-05-23T18:54:27.508Z,100619.00
2023-05-23T18:56:55.202Z,100629.91
2023-05-23T18:59:22.802Z,100627.19
2023-05-23T19:01:50.495Z,100627.19
2023-05-23T19:04:18.392Z,100634.53
2023-05-23T19:06:46.077Z,100643.75
2023-05-23T19:09:13.756Z,100642.91
2023-05-23T19:11:41.387Z,100652.81
2023-05-23T19:14:08.965Z,100650.25
2023-05-23T19:16:36.591Z,100654.66
2023-05-23T19:19:04.442Z,100656.38
2023-05-23T19:21:32.533Z,100652.13
2023-05-23T19:24:00.137Z,100661.34
2023-05-23T19:26:27.875Z,100665.13
2023-05-23T19:28:55.568Z,100669.53
2023-05-23T19:31:23.214Z,100670.56
2023-05-23T19:33:51.021Z,100671.63
2023-05-23T19:36:19.108Z,100680.81
2023-05-23T19:38:46.856Z,100680.81
2023-05-23T19:41:14.448Z,100682.72
2023-05-23T19:43:42.047Z,100672.34
2023-05-23T19:46:09.800Z,100679.31
2023-05-23T19:48:37.682Z,100679.50
2023-05-23T19:51:05.453Z,100686.81
2023-05-23T19:53:33.051Z,100679.88
2023-05-23T19:56:02.393Z,100685.16
2023-05-23T19:58:29.993Z,100692.66
2023-05-23T20:00:57.573Z,100690.78
2023-05-23T20:03:25.292Z,100698.31
2023-05-23T20:05:52.897Z,100701.22
2023-05-23T20:08:20.488Z,100701.41
2023-05-23T20:10:48.065Z,100708.56
2023-05-23T20:13:15.864Z,100706.50
2023-05-23T20:15:43.620Z,100705.00
2023-05-23T20:18:11.613Z,100704.13
2023-05-23T20:20:39.362Z,100711.31
2023-05-23T20:23:07.460Z,100705.84
2023-05-23T20:25:35.159Z,100719.88
2023-05-23T20:28:02.795Z,100719.66
2023-05-23T20:30:30.699Z,100727.84
2023-05-23T20:32:58.335Z,100724.28
2023-05-23T20:35:26.032Z,100721.91
2023-05-23T20:37:53.682Z,100730.28
2023-05-23T20:40:22.186Z,100727.06
2023-05-23T20:42:49.858Z,100729.44
2023-05-23T20:45:17.526Z,100729.44
2023-05-23T20:47:46.280Z,100737.81
2023-05-23T20:50:14.732Z,100750.91
2023-05-23T20:52:43.280Z,100749.69
2023-05-23T20:55:11.213Z,100746.78
2023-05-23T20:57:39.530Z,100742.63
2023-05-23T21:00:11.135Z,100738.88
2023-05-23T21:02:38.869Z,100742.63
2023-05-23T21:05:06.756Z,100744.34
2023-05-23T21:07:34.382Z,100743.50
2023-05-23T21:10:01.963Z,100750.81
2023-05-23T21:12:29.626Z,100755.63
2023-05-23T21:14:58.057Z,100757.03
2023-05-23T21:17:26.039Z,100765.59
2023-05-23T21:19:53.730Z,100763.91
2023-05-23T21:22:21.371Z,100764.75
2023-05-23T21:24:48.966Z,100760.28
2023-05-23T21:27:16.741Z,100757.25
2023-05-23T21:29:45.031Z,100764.59
2023-05-23T21:32:12.862Z,100770.06
2023-05-23T21:34:40.504Z,100766.66
2023-05-23T21:37:08.192Z,100766.66
2023-05-23T21:39:49.846Z,100765.13
2023-05-23T21:42:19.404Z,100770.78
2023-05-23T21:44:47.104Z,100771.47
2023-05-23T21:47:14.740Z,100769.06
2023-05-23T21:49:42.421Z,100770.94
2023-05-23T21:52:10.068Z,100774.50
2023-05-23T21:54:37.732Z,100779.31
2023-05-23T21:57:05.354Z,100786.28
2023-05-23T21:59:32.936Z,100782.69
2023-05-23T22:02:00.968Z,100796.69
2023-05-23T22:04:28.702Z,100785.78
2023-05-23T22:06:56.574Z,100792.09
2023-05-23T22:09:24.160Z,100786.63
2023-05-23T22:11:51.771Z,100792.09
2023-05-23T22:14:19.388Z,100797.53
2023-05-23T22:16:47.224Z,100798.75
2023-05-23T22:19:18.061Z,100790.41
2023-05-23T22:21:45.810Z,100794.81
2023-05-23T22:24:13.529Z,100791.25
2023-05-23T22:26:41.215Z,100793.31
2023-05-23T22:29:08.844Z,100795.00
2023-05-23T22:31:36.814Z,100791.63
2023-05-23T22:34:04.754Z,100791.44
2023-05-23T22:36:33.614Z,100785.31
2023-05-23T22:39:02.118Z,100788.72
2023-05-23T22:41:31.472Z,100792.66
2023-05-23T22:43:59.110Z,100795.38
2023-05-23T22:46:27.051Z,100792.16
2023-05-23T22:48:56.047Z,100786.91
2023-05-23T22:51:23.622Z,100794.41
2023-05-23T22:53:51.202Z,100790.25
2023-05-23T22:56:18.789Z,100795.72
2023-05-23T22:58:46.385Z,100788.94
2023-05-23T23:01:14.106Z,100797.97
2023-05-23T23:03:41.718Z,100793.56
2023-05-23T23:06:09.488Z,100799.00
2023-05-23T23:08:37.783Z,100797.66
2023-05-23T23:11:05.415Z,100807.06
2023-05-23T23:13:33.001Z,100813.53
2023-05-23T23:16:00.691Z,100800.91
2023-05-23T23:18:28.315Z,100818.16
2023-05-23T23:20:56.368Z,100820.88
2023-05-23T23:23:23.945Z,100807.94
2023-05-23T23:25:52.347Z,100815.28
2023-05-23T23:28:20.094Z,100819.06
2023-05-23T23:30:47.679Z,100821.09
2023-05-23T23:33:15.794Z,100819.22
2023-05-23T23:35:45.539Z,100813.59
2023-05-23T23:38:13.203Z,100829.09
2023-05-23T23:40:44.367Z,100825.88
2023-05-23T23:43:12.096Z,100824.72
2023-05-23T23:45:39.725Z,100822.16
2023-05-23T23:48:07.351Z,100822.00
2023-05-23T23:50:35.013Z,100808.19
2023-05-23T23:53:02.865Z,100816.38
2023-05-23T23:55:30.811Z,100823.88
2023-05-23T23:57:58.409Z,100821.47
